sensor_id;sensor_type;location;lat;lon;timestamp;P1;durP1;ratioP1;P2;durP2;ratioP2
76336;SDS011;65157;50.082;18.178;2023-05-10T00:00:35;10.90;;;5.20;;
76336;SDS011;65157;50.082;18.178;2023-05-10T00:03:10;11.00;;;5.80;;
76336;SDS011;65157;50.082;18.178;2023-05-10T00:05:36;9.60;;;6.10;;
76336;SDS011;65157;50.082;18.178;2023-05-10T00:08:03;11.80;;;6.00;;
76336;SDS011;65157;50.082;18.178;2023-05-10T00:10:30;10.20;;;5.60;;
76336;SDS011;65157;50.082;18.178;2023-05-10T00:12:57;12.10;;;6.00;;
76336;SDS011;65157;50.082;18.178;2023-05-10T00:15:24;8.90;;;5.50;;
76336;SDS011;65157;50.082;18.178;2023-05-10T00:17:51;9.60;;;5.20;;
76336;SDS011;65157;50.082;18.178;2023-05-10T00:20:18;9.30;;;5.30;;
76336;SDS011;65157;50.082;18.178;2023-05-10T00:22:44;8.70;;;5.10;;
76336;SDS011;65157;50.082;18.178;2023-05-10T00:25:11;10.00;;;5.00;;
76336;SDS011;65157;50.082;18.178;2023-05-10T00:27:38;11.00;;;5.40;;
76336;SDS011;65157;50.082;18.178;2023-05-10T00:30:06;10.30;;;5.30;;
76336;SDS011;65157;50.082;18.178;2023-05-10T00:32:34;12.10;;;6.20;;
76336;SDS011;65157;50.082;18.178;2023-05-10T00:35:01;10.10;;;5.60;;
76336;SDS011;65157;50.082;18.178;2023-05-10T00:37:28;9.30;;;4.70;;
76336;SDS011;65157;50.082;18.178;2023-05-10T00:39:54;7.10;;;4.20;;
76336;SDS011;65157;50.082;18.178;2023-05-10T00:42:21;7.50;;;4.40;;
76336;SDS011;65157;50.082;18.178;2023-05-10T00:44:48;7.50;;;3.90;;
76336;SDS011;65157;50.082;18.178;2023-05-10T00:47:15;7.60;;;4.30;;
76336;SDS011;65157;50.082;18.178;2023-05-10T00:49:43;11.40;;;4.40;;
76336;SDS011;65157;50.082;18.178;2023-05-10T00:52:10;8.50;;;4.10;;
76336;SDS011;65157;50.082;18.178;2023-05-10T00:54:37;10.20;;;4.80;;
76336;SDS011;65157;50.082;18.178;2023-05-10T00:57:04;10.50;;;4.60;;
76336;SDS011;65157;50.082;18.178;2023-05-10T00:59:30;6.80;;;4.30;;
76336;SDS011;65157;50.082;18.178;2023-05-10T01:01:57;8.70;;;4.60;;
76336;SDS011;65157;50.082;18.178;2023-05-10T01:04:24;7.20;;;4.20;;
76336;SDS011;65157;50.082;18.178;2023-05-10T01:06:51;8.70;;;3.70;;
76336;SDS011;65157;50.082;18.178;2023-05-10T01:09:21;7.50;;;3.90;;
76336;SDS011;65157;50.082;18.178;2023-05-10T01:11:48;9.20;;;4.30;;
76336;SDS011;65157;50.082;18.178;2023-05-10T01:16:44;6.20;;;3.70;;
76336;SDS011;65157;50.082;18.178;2023-05-10T01:19:17;7.90;;;4.40;;
76336;SDS011;65157;50.082;18.178;2023-05-10T01:27:37;5.50;;;3.50;;
76336;SDS011;65157;50.082;18.178;2023-05-10T01:35:37;7.40;;;4.10;;
76336;SDS011;65157;50.082;18.178;2023-05-10T01:41:13;7.20;;;3.60;;
76336;SDS011;65157;50.082;18.178;2023-05-10T01:46:33;6.30;;;3.50;;
76336;SDS011;65157;50.082;18.178;2023-05-10T01:49:03;6.60;;;3.50;;
76336;SDS011;65157;50.082;18.178;2023-05-10T01:51:39;5.70;;;3.20;;
76336;SDS011;65157;50.082;18.178;2023-05-10T01:54:13;8.40;;;3.90;;
76336;SDS011;65157;50.082;18.178;2023-05-10T01:56:43;8.80;;;3.70;;
76336;SDS011;65157;50.082;18.178;2023-05-10T01:59:13;5.30;;;3.10;;
76336;SDS011;65157;50.082;18.178;2023-05-10T02:01:43;4.30;;;3.00;;
76336;SDS011;65157;50.082;18.178;2023-05-10T02:04:15;7.50;;;3.80;;
76336;SDS011;65157;50.082;18.178;2023-05-10T02:06:43;6.00;;;3.80;;
76336;SDS011;65157;50.082;18.178;2023-05-10T02:09:17;5.70;;;3.30;;
76336;SDS011;65157;50.082;18.178;2023-05-10T02:11:45;5.50;;;3.20;;
76336;SDS011;65157;50.082;18.178;2023-05-10T02:14:15;6.50;;;3.60;;
76336;SDS011;65157;50.082;18.178;2023-05-10T02:16:43;5.30;;;3.30;;
76336;SDS011;65157;50.082;18.178;2023-05-10T02:19:11;7.60;;;3.70;;
76336;SDS011;65157;50.082;18.178;2023-05-10T02:21:40;6.20;;;3.40;;
76336;SDS011;65157;50.082;18.178;2023-05-10T02:24:08;11.10;;;3.90;;
76336;SDS011;65157;50.082;18.178;2023-05-10T02:26:38;8.40;;;3.70;;
76336;SDS011;65157;50.082;18.178;2023-05-10T02:29:05;8.70;;;3.50;;
76336;SDS011;65157;50.082;18.178;2023-05-10T02:31:33;6.20;;;3.10;;
76336;SDS011;65157;50.082;18.178;2023-05-10T02:34:01;5.40;;;3.10;;
76336;SDS011;65157;50.082;18.178;2023-05-10T02:36:30;6.60;;;3.00;;
76336;SDS011;65157;50.082;18.178;2023-05-10T02:38:57;8.00;;;3.80;;
76336;SDS011;65157;50.082;18.178;2023-05-10T02:41:31;7.80;;;4.20;;
76336;SDS011;65157;50.082;18.178;2023-05-10T02:43:59;7.10;;;3.90;;
76336;SDS011;65157;50.082;18.178;2023-05-10T02:46:28;8.20;;;4.10;;
76336;SDS011;65157;50.082;18.178;2023-05-10T02:48:56;6.70;;;4.10;;
76336;SDS011;65157;50.082;18.178;2023-05-10T02:51:24;8.10;;;4.10;;
76336;SDS011;65157;50.082;18.178;2023-05-10T02:53:56;8.10;;;4.20;;
76336;SDS011;65157;50.082;18.178;2023-05-10T02:56:29;7.70;;;4.00;;
76336;SDS011;65157;50.082;18.178;2023-05-10T02:58:59;7.00;;;4.20;;
76336;SDS011;65157;50.082;18.178;2023-05-10T03:01:26;8.70;;;4.30;;
76336;SDS011;65157;50.082;18.178;2023-05-10T03:03:54;7.60;;;4.40;;
76336;SDS011;65157;50.082;18.178;2023-05-10T03:06:21;9.10;;;4.60;;
76336;SDS011;65157;50.082;18.178;2023-05-10T03:08:48;9.40;;;4.50;;
76336;SDS011;65157;50.082;18.178;2023-05-10T03:11:32;7.90;;;4.30;;
76336;SDS011;65157;50.082;18.178;2023-05-10T03:20:16;10.60;;;4.80;;
76336;SDS011;65157;50.082;18.178;2023-05-10T03:23:00;8.10;;;3.90;;
76336;SDS011;65157;50.082;18.178;2023-05-10T03:25:31;10.80;;;4.40;;
76336;SDS011;65157;50.082;18.178;2023-05-10T03:28:01;10.00;;;4.70;;
76336;SDS011;65157;50.082;18.178;2023-05-10T03:30:29;9.10;;;4.90;;
76336;SDS011;65157;50.082;18.178;2023-05-10T03:32:57;7.50;;;4.50;;
76336;SDS011;65157;50.082;18.178;2023-05-10T03:35:23;9.30;;;4.80;;
76336;SDS011;65157;50.082;18.178;2023-05-10T03:37:50;10.10;;;5.10;;
76336;SDS011;65157;50.082;18.178;2023-05-10T03:40:17;9.80;;;5.60;;
76336;SDS011;65157;50.082;18.178;2023-05-10T03:42:45;10.80;;;4.90;;
76336;SDS011;65157;50.082;18.178;2023-05-10T03:45:13;11.10;;;4.70;;
76336;SDS011;65157;50.082;18.178;2023-05-10T03:47:40;11.70;;;5.80;;
76336;SDS011;65157;50.082;18.178;2023-05-10T03:50:07;13.00;;;6.20;;
76336;SDS011;65157;50.082;18.178;2023-05-10T03:52:35;9.90;;;6.00;;
76336;SDS011;65157;50.082;18.178;2023-05-10T03:55:01;10.70;;;5.30;;
76336;SDS011;65157;50.082;18.178;2023-05-10T03:57:28;8.40;;;5.40;;
76336;SDS011;65157;50.082;18.178;2023-05-10T03:59:55;10.60;;;5.10;;
76336;SDS011;65157;50.082;18.178;2023-05-10T04:02:21;9.50;;;5.00;;
76336;SDS011;65157;50.082;18.178;2023-05-10T04:04:49;9.50;;;5.60;;
76336;SDS011;65157;50.082;18.178;2023-05-10T04:07:16;8.10;;;4.80;;
76336;SDS011;65157;50.082;18.178;2023-05-10T04:09:43;8.10;;;4.90;;
76336;SDS011;65157;50.082;18.178;2023-05-10T04:12:11;15.80;;;5.60;;
76336;SDS011;65157;50.082;18.178;2023-05-10T04:14:38;10.40;;;5.80;;
76336;SDS011;65157;50.082;18.178;2023-05-10T04:17:04;9.00;;;4.90;;
76336;SDS011;65157;50.082;18.178;2023-05-10T04:19:31;9.00;;;5.30;;
76336;SDS011;65157;50.082;18.178;2023-05-10T04:21:58;7.50;;;4.30;;
76336;SDS011;65157;50.082;18.178;2023-05-10T04:24:25;8.10;;;4.60;;
76336;SDS011;65157;50.082;18.178;2023-05-10T04:26:51;7.50;;;4.10;;
76336;SDS011;65157;50.082;18.178;2023-05-10T04:29:20;7.30;;;4.10;;
76336;SDS011;65157;50.082;18.178;2023-05-10T04:31:47;8.00;;;4.60;;
76336;SDS011;65157;50.082;18.178;2023-05-10T04:34:13;9.00;;;5.30;;
76336;SDS011;65157;50.082;18.178;2023-05-10T04:36:40;14.00;;;5.40;;
76336;SDS011;65157;50.082;18.178;2023-05-10T04:39:07;8.80;;;6.00;;
76336;SDS011;65157;50.082;18.178;2023-05-10T04:41:37;10.90;;;6.20;;
76336;SDS011;65157;50.082;18.178;2023-05-10T04:44:04;11.80;;;6.20;;
76336;SDS011;65157;50.082;18.178;2023-05-10T04:46:31;10.90;;;5.10;;
76336;SDS011;65157;50.082;18.178;2023-05-10T04:48:57;11.00;;;4.90;;
76336;SDS011;65157;50.082;18.178;2023-05-10T04:51:24;9.10;;;5.20;;
76336;SDS011;65157;50.082;18.178;2023-05-10T04:53:50;8.10;;;4.80;;
76336;SDS011;65157;50.082;18.178;2023-05-10T04:56:17;11.40;;;5.90;;
76336;SDS011;65157;50.082;18.178;2023-05-10T04:58:44;9.90;;;5.10;;
76336;SDS011;65157;50.082;18.178;2023-05-10T05:01:10;7.20;;;4.40;;
76336;SDS011;65157;50.082;18.178;2023-05-10T05:03:37;7.30;;;3.50;;
76336;SDS011;65157;50.082;18.178;2023-05-10T05:06:04;6.60;;;3.90;;
76336;SDS011;65157;50.082;18.178;2023-05-10T05:08:32;7.40;;;4.20;;
76336;SDS011;65157;50.082;18.178;2023-05-10T05:11:04;10.10;;;3.80;;
76336;SDS011;65157;50.082;18.178;2023-05-10T05:13:31;8.70;;;4.00;;
76336;SDS011;65157;50.082;18.178;2023-05-10T05:16:02;5.70;;;4.20;;
76336;SDS011;65157;50.082;18.178;2023-05-10T05:18:29;10.00;;;3.90;;
76336;SDS011;65157;50.082;18.178;2023-05-10T05:20:59;8.60;;;4.50;;
76336;SDS011;65157;50.082;18.178;2023-05-10T05:23:31;7.40;;;4.40;;
76336;SDS011;65157;50.082;18.178;2023-05-10T05:25:57;6.80;;;4.50;;
76336;SDS011;65157;50.082;18.178;2023-05-10T05:28:24;8.00;;;3.70;;
76336;SDS011;65157;50.082;18.178;2023-05-10T05:30:51;7.50;;;4.60;;
76336;SDS011;65157;50.082;18.178;2023-05-10T05:33:19;6.80;;;4.70;;
76336;SDS011;65157;50.082;18.178;2023-05-10T05:35:56;7.20;;;4.00;;
76336;SDS011;65157;50.082;18.178;2023-05-10T05:38:27;7.50;;;4.60;;
76336;SDS011;65157;50.082;18.178;2023-05-10T05:40:54;8.50;;;4.20;;
76336;SDS011;65157;50.082;18.178;2023-05-10T05:43:21;7.60;;;4.30;;
76336;SDS011;65157;50.082;18.178;2023-05-10T05:45:48;5.70;;;3.20;;
76336;SDS011;65157;50.082;18.178;2023-05-10T05:48:14;7.30;;;3.20;;
76336;SDS011;65157;50.082;18.178;2023-05-10T05:50:41;7.00;;;3.30;;
76336;SDS011;65157;50.082;18.178;2023-05-10T05:53:12;9.10;;;3.80;;
76336;SDS011;65157;50.082;18.178;2023-05-10T05:55:39;6.30;;;4.40;;
76336;SDS011;65157;50.082;18.178;2023-05-10T05:58:07;8.10;;;4.40;;
76336;SDS011;65157;50.082;18.178;2023-05-10T06:00:34;6.60;;;4.20;;
76336;SDS011;65157;50.082;18.178;2023-05-10T06:03:03;8.10;;;3.80;;
76336;SDS011;65157;50.082;18.178;2023-05-10T06:05:34;7.90;;;4.20;;
76336;SDS011;65157;50.082;18.178;2023-05-10T06:08:01;9.50;;;4.90;;
76336;SDS011;65157;50.082;18.178;2023-05-10T06:10:30;5.80;;;2.50;;
76336;SDS011;65157;50.082;18.178;2023-05-10T06:12:57;6.50;;;3.50;;
76336;SDS011;65157;50.082;18.178;2023-05-10T06:15:24;5.30;;;3.30;;
76336;SDS011;65157;50.082;18.178;2023-05-10T06:17:50;5.50;;;3.20;;
76336;SDS011;65157;50.082;18.178;2023-05-10T06:20:17;6.90;;;3.40;;
76336;SDS011;65157;50.082;18.178;2023-05-10T06:22:44;7.20;;;3.20;;
76336;SDS011;65157;50.082;18.178;2023-05-10T06:25:11;6.80;;;3.50;;
76336;SDS011;65157;50.082;18.178;2023-05-10T06:27:38;7.00;;;3.40;;
76336;SDS011;65157;50.082;18.178;2023-05-10T06:30:04;5.20;;;2.90;;
76336;SDS011;65157;50.082;18.178;2023-05-10T06:32:32;4.60;;;2.80;;
76336;SDS011;65157;50.082;18.178;2023-05-10T06:35:00;4.90;;;3.20;;
76336;SDS011;65157;50.082;18.178;2023-05-10T06:37:27;5.00;;;3.10;;
76336;SDS011;65157;50.082;18.178;2023-05-10T06:39:54;5.00;;;2.80;;
76336;SDS011;65157;50.082;18.178;2023-05-10T06:42:25;4.80;;;3.30;;
76336;SDS011;65157;50.082;18.178;2023-05-10T06:44:52;5.20;;;2.90;;
76336;SDS011;65157;50.082;18.178;2023-05-10T06:47:23;6.50;;;2.90;;
76336;SDS011;65157;50.082;18.178;2023-05-10T06:49:50;3.90;;;2.80;;
76336;SDS011;65157;50.082;18.178;2023-05-10T06:52:17;4.80;;;2.70;;
76336;SDS011;65157;50.082;18.178;2023-05-10T06:54:46;5.60;;;2.80;;
76336;SDS011;65157;50.082;18.178;2023-05-10T06:57:12;2.70;;;2.20;;
76336;SDS011;65157;50.082;18.178;2023-05-10T06:59:40;6.60;;;2.80;;
76336;SDS011;65157;50.082;18.178;2023-05-10T07:02:07;5.80;;;2.50;;
76336;SDS011;65157;50.082;18.178;2023-05-10T07:04:33;3.30;;;2.40;;
76336;SDS011;65157;50.082;18.178;2023-05-10T07:07:09;3.40;;;2.80;;
76336;SDS011;65157;50.082;18.178;2023-05-10T07:09:36;6.00;;;2.70;;
76336;SDS011;65157;50.082;18.178;2023-05-10T07:12:03;5.30;;;2.50;;
76336;SDS011;65157;50.082;18.178;2023-05-10T07:14:32;3.50;;;2.50;;
76336;SDS011;65157;50.082;18.178;2023-05-10T07:16:58;5.10;;;2.40;;
76336;SDS011;65157;50.082;18.178;2023-05-10T07:19:26;5.50;;;2.40;;
76336;SDS011;65157;50.082;18.178;2023-05-10T07:21:52;5.20;;;2.30;;
76336;SDS011;65157;50.082;18.178;2023-05-10T07:24:19;4.00;;;2.70;;
76336;SDS011;65157;50.082;18.178;2023-05-10T07:29:16;3.60;;;2.00;;
76336;SDS011;65157;50.082;18.178;2023-05-10T07:31:43;3.40;;;2.00;;
76336;SDS011;65157;50.082;18.178;2023-05-10T07:34:12;3.20;;;2.00;;
76336;SDS011;65157;50.082;18.178;2023-05-10T07:36:39;5.20;;;2.10;;
76336;SDS011;65157;50.082;18.178;2023-05-10T07:39:06;3.70;;;2.30;;
76336;SDS011;65157;50.082;18.178;2023-05-10T07:41:32;4.40;;;2.80;;
76336;SDS011;65157;50.082;18.178;2023-05-10T07:43:59;5.20;;;2.20;;
76336;SDS011;65157;50.082;18.178;2023-05-10T07:46:27;3.40;;;2.40;;
76336;SDS011;65157;50.082;18.178;2023-05-10T07:48:53;4.90;;;2.20;;
76336;SDS011;65157;50.082;18.178;2023-05-10T07:51:20;4.10;;;2.50;;
76336;SDS011;65157;50.082;18.178;2023-05-10T07:53:50;3.90;;;2.50;;
76336;SDS011;65157;50.082;18.178;2023-05-10T07:56:21;3.60;;;2.40;;
76336;SDS011;65157;50.082;18.178;2023-05-10T07:58:49;5.30;;;2.40;;
76336;SDS011;65157;50.082;18.178;2023-05-10T08:01:18;3.50;;;2.20;;
76336;SDS011;65157;50.082;18.178;2023-05-10T08:03:44;4.10;;;2.00;;
76336;SDS011;65157;50.082;18.178;2023-05-10T08:08:38;3.70;;;2.00;;
76336;SDS011;65157;50.082;18.178;2023-05-10T08:11:04;2.70;;;2.20;;
76336;SDS011;65157;50.082;18.178;2023-05-10T08:15:58;2.50;;;1.60;;
76336;SDS011;65157;50.082;18.178;2023-05-10T08:20:51;4.90;;;2.30;;
76336;SDS011;65157;50.082;18.178;2023-05-10T08:23:18;3.90;;;2.10;;
76336;SDS011;65157;50.082;18.178;2023-05-10T08:25:47;5.10;;;2.10;;
76336;SDS011;65157;50.082;18.178;2023-05-10T08:28:16;3.90;;;2.00;;
76336;SDS011;65157;50.082;18.178;2023-05-10T08:30:43;2.60;;;1.80;;
76336;SDS011;65157;50.082;18.178;2023-05-10T08:33:09;4.30;;;2.20;;
76336;SDS011;65157;50.082;18.178;2023-05-10T08:35:36;3.30;;;2.30;;
76336;SDS011;65157;50.082;18.178;2023-05-10T08:38:03;2.90;;;2.00;;
76336;SDS011;65157;50.082;18.178;2023-05-10T08:40:31;3.40;;;2.00;;
76336;SDS011;65157;50.082;18.178;2023-05-10T08:42:59;2.60;;;1.80;;
76336;SDS011;65157;50.082;18.178;2023-05-10T08:45:32;5.50;;;2.30;;
76336;SDS011;65157;50.082;18.178;2023-05-10T08:48:04;2.50;;;2.10;;
76336;SDS011;65157;50.082;18.178;2023-05-10T08:50:39;3.70;;;2.10;;
76336;SDS011;65157;50.082;18.178;2023-05-10T08:53:11;2.10;;;2.00;;
76336;SDS011;65157;50.082;18.178;2023-05-10T08:55:42;2.40;;;2.20;;
76336;SDS011;65157;50.082;18.178;2023-05-10T08:58:18;2.00;;;1.80;;
76336;SDS011;65157;50.082;18.178;2023-05-10T09:00:49;3.40;;;2.10;;
76336;SDS011;65157;50.082;18.178;2023-05-10T09:03:16;2.60;;;2.20;;
76336;SDS011;65157;50.082;18.178;2023-05-10T09:05:46;2.10;;;1.90;;
76336;SDS011;65157;50.082;18.178;2023-05-10T09:08:14;5.30;;;3.30;;
76336;SDS011;65157;50.082;18.178;2023-05-10T09:10:42;3.70;;;2.80;;
76336;SDS011;65157;50.082;18.178;2023-05-10T09:13:10;3.40;;;2.50;;
76336;SDS011;65157;50.082;18.178;2023-05-10T09:15:37;2.30;;;2.10;;
76336;SDS011;65157;50.082;18.178;2023-05-10T09:18:05;2.80;;;2.50;;
76336;SDS011;65157;50.082;18.178;2023-05-10T09:20:32;4.90;;;2.60;;
76336;SDS011;65157;50.082;18.178;2023-05-10T09:25:26;1.90;;;1.80;;
76336;SDS011;65157;50.082;18.178;2023-05-10T09:27:53;2.20;;;2.00;;
76336;SDS011;65157;50.082;18.178;2023-05-10T09:32:56;2.40;;;2.20;;
76336;SDS011;65157;50.082;18.178;2023-05-10T09:35:26;1.60;;;1.50;;
76336;SDS011;65157;50.082;18.178;2023-05-10T09:37:59;2.20;;;2.10;;
76336;SDS011;65157;50.082;18.178;2023-05-10T09:40:28;1.70;;;1.60;;
76336;SDS011;65157;50.082;18.178;2023-05-10T09:43:00;1.60;;;1.50;;
76336;SDS011;65157;50.082;18.178;2023-05-10T09:45:35;2.40;;;1.90;;
76336;SDS011;65157;50.082;18.178;2023-05-10T09:48:05;2.60;;;1.90;;
76336;SDS011;65157;50.082;18.178;2023-05-10T09:50:34;2.30;;;1.80;;
76336;SDS011;65157;50.082;18.178;2023-05-10T09:53:02;3.20;;;2.20;;
76336;SDS011;65157;50.082;18.178;2023-05-10T09:58:13;3.60;;;2.00;;
76336;SDS011;65157;50.082;18.178;2023-05-10T10:00:41;3.60;;;2.00;;
76336;SDS011;65157;50.082;18.178;2023-05-10T10:03:13;1.70;;;1.60;;
76336;SDS011;65157;50.082;18.178;2023-05-10T10:05:43;3.00;;;2.30;;
76336;SDS011;65157;50.082;18.178;2023-05-10T10:08:13;2.20;;;2.00;;
76336;SDS011;65157;50.082;18.178;2023-05-10T10:10:41;3.20;;;2.00;;
76336;SDS011;65157;50.082;18.178;2023-05-10T10:13:09;2.20;;;2.00;;
76336;SDS011;65157;50.082;18.178;2023-05-10T10:15:36;3.50;;;2.50;;
76336;SDS011;65157;50.082;18.178;2023-05-10T10:18:03;2.70;;;1.90;;
76336;SDS011;65157;50.082;18.178;2023-05-10T10:20:32;2.00;;;1.70;;
76336;SDS011;65157;50.082;18.178;2023-05-10T10:23:00;2.00;;;1.90;;
76336;SDS011;65157;50.082;18.178;2023-05-10T10:25:26;2.30;;;2.10;;
76336;SDS011;65157;50.082;18.178;2023-05-10T10:35:58;2.30;;;2.10;;
76336;SDS011;65157;50.082;18.178;2023-05-10T10:38:35;3.80;;;2.60;;
76336;SDS011;65157;50.082;18.178;2023-05-10T10:41:08;5.00;;;2.30;;
76336;SDS011;65157;50.082;18.178;2023-05-10T10:43:37;3.30;;;2.50;;
76336;SDS011;65157;50.082;18.178;2023-05-10T10:48:40;2.50;;;2.30;;
76336;SDS011;65157;50.082;18.178;2023-05-10T10:51:13;4.60;;;2.30;;
76336;SDS011;65157;50.082;18.178;2023-05-10T10:53:40;2.20;;;2.00;;
76336;SDS011;65157;50.082;18.178;2023-05-10T10:56:09;2.10;;;1.90;;
76336;SDS011;65157;50.082;18.178;2023-05-10T10:58:38;2.60;;;1.90;;
76336;SDS011;65157;50.082;18.178;2023-05-10T11:01:13;2.30;;;1.80;;
76336;SDS011;65157;50.082;18.178;2023-05-10T11:03:56;1.80;;;1.70;;
76336;SDS011;65157;50.082;18.178;2023-05-10T11:06:45;2.20;;;1.90;;
76336;SDS011;65157;50.082;18.178;2023-05-10T11:09:12;2.20;;;2.00;;
76336;SDS011;65157;50.082;18.178;2023-05-10T11:11:57;2.70;;;2.40;;
76336;SDS011;65157;50.082;18.178;2023-05-10T11:14:24;2.40;;;2.10;;
76336;SDS011;65157;50.082;18.178;2023-05-10T11:16:55;3.50;;;1.90;;
76336;SDS011;65157;50.082;18.178;2023-05-10T11:19:21;2.40;;;2.20;;
76336;SDS011;65157;50.082;18.178;2023-05-10T11:22:16;6.00;;;2.00;;
76336;SDS011;65157;50.082;18.178;2023-05-10T11:24:49;2.40;;;2.20;;
76336;SDS011;65157;50.082;18.178;2023-05-10T11:27:23;2.40;;;1.80;;
76336;SDS011;65157;50.082;18.178;2023-05-10T11:29:53;1.80;;;1.70;;
76336;SDS011;65157;50.082;18.178;2023-05-10T11:32:19;2.80;;;1.90;;
76336;SDS011;65157;50.082;18.178;2023-05-10T11:34:47;1.80;;;1.60;;
76336;SDS011;65157;50.082;18.178;2023-05-10T11:37:17;2.90;;;2.10;;
76336;SDS011;65157;50.082;18.178;2023-05-10T11:39:45;2.40;;;2.20;;
76336;SDS011;65157;50.082;18.178;2023-05-10T11:42:12;2.40;;;2.20;;
76336;SDS011;65157;50.082;18.178;2023-05-10T11:44:39;3.40;;;2.50;;
76336;SDS011;65157;50.082;18.178;2023-05-10T11:47:05;2.00;;;1.80;;
76336;SDS011;65157;50.082;18.178;2023-05-10T11:49:32;2.90;;;1.80;;
76336;SDS011;65157;50.082;18.178;2023-05-10T11:52:06;2.20;;;2.10;;
76336;SDS011;65157;50.082;18.178;2023-05-10T11:54:34;1.50;;;1.40;;
76336;SDS011;65157;50.082;18.178;2023-05-10T11:57:00;2.10;;;1.80;;
76336;SDS011;65157;50.082;18.178;2023-05-10T11:59:27;2.50;;;1.50;;
76336;SDS011;65157;50.082;18.178;2023-05-10T12:01:54;2.10;;;1.70;;
76336;SDS011;65157;50.082;18.178;2023-05-10T12:04:22;2.20;;;1.80;;
76336;SDS011;65157;50.082;18.178;2023-05-10T12:06:52;3.20;;;1.70;;
76336;SDS011;65157;50.082;18.178;2023-05-10T12:09:22;3.20;;;1.80;;
76336;SDS011;65157;50.082;18.178;2023-05-10T12:11:50;1.90;;;1.70;;
76336;SDS011;65157;50.082;18.178;2023-05-10T12:14:22;3.50;;;2.10;;
76336;SDS011;65157;50.082;18.178;2023-05-10T12:16:49;2.40;;;1.80;;
76336;SDS011;65157;50.082;18.178;2023-05-10T12:19:19;2.30;;;2.10;;
76336;SDS011;65157;50.082;18.178;2023-05-10T12:21:46;2.90;;;2.10;;
76336;SDS011;65157;50.082;18.178;2023-05-10T12:24:13;4.20;;;2.20;;
76336;SDS011;65157;50.082;18.178;2023-05-10T12:26:42;3.40;;;2.30;;
76336;SDS011;65157;50.082;18.178;2023-05-10T12:29:16;4.00;;;1.80;;
76336;SDS011;65157;50.082;18.178;2023-05-10T12:31:57;2.20;;;2.00;;
76336;SDS011;65157;50.082;18.178;2023-05-10T12:34:33;3.80;;;2.30;;
76336;SDS011;65157;50.082;18.178;2023-05-10T12:37:01;4.30;;;2.50;;
76336;SDS011;65157;50.082;18.178;2023-05-10T12:39:39;4.90;;;2.40;;
76336;SDS011;65157;50.082;18.178;2023-05-10T12:42:09;2.40;;;2.20;;
76336;SDS011;65157;50.082;18.178;2023-05-10T12:44:36;2.80;;;2.20;;
76336;SDS011;65157;50.082;18.178;2023-05-10T12:47:08;2.50;;;2.00;;
76336;SDS011;65157;50.082;18.178;2023-05-10T12:49:34;2.70;;;2.10;;
76336;SDS011;65157;50.082;18.178;2023-05-10T12:52:01;4.80;;;2.70;;
76336;SDS011;65157;50.082;18.178;2023-05-10T12:54:29;5.20;;;2.50;;
76336;SDS011;65157;50.082;18.178;2023-05-10T12:56:56;5.20;;;2.60;;
76336;SDS011;65157;50.082;18.178;2023-05-10T12:59:23;2.60;;;2.30;;
76336;SDS011;65157;50.082;18.178;2023-05-10T13:01:56;5.70;;;2.30;;
76336;SDS011;65157;50.082;18.178;2023-05-10T13:04:23;4.70;;;2.40;;
76336;SDS011;65157;50.082;18.178;2023-05-10T13:06:50;3.20;;;1.80;;
76336;SDS011;65157;50.082;18.178;2023-05-10T13:09:19;3.10;;;2.40;;
76336;SDS011;65157;50.082;18.178;2023-05-10T13:11:45;3.60;;;2.30;;
76336;SDS011;65157;50.082;18.178;2023-05-10T13:14:15;5.60;;;2.00;;
76336;SDS011;65157;50.082;18.178;2023-05-10T13:16:42;3.30;;;2.50;;
76336;SDS011;65157;50.082;18.178;2023-05-10T13:19:08;3.80;;;2.40;;
76336;SDS011;65157;50.082;18.178;2023-05-10T13:21:35;4.30;;;2.30;;
76336;SDS011;65157;50.082;18.178;2023-05-10T13:24:02;3.00;;;2.00;;
76336;SDS011;65157;50.082;18.178;2023-05-10T13:26:29;4.10;;;2.30;;
76336;SDS011;65157;50.082;18.178;2023-05-10T13:28:56;3.30;;;2.00;;
76336;SDS011;65157;50.082;18.178;2023-05-10T13:31:22;2.20;;;1.70;;
76336;SDS011;65157;50.082;18.178;2023-05-10T13:33:51;2.40;;;2.20;;
76336;SDS011;65157;50.082;18.178;2023-05-10T13:36:18;2.50;;;2.10;;
76336;SDS011;65157;50.082;18.178;2023-05-10T13:38:44;2.60;;;2.30;;
76336;SDS011;65157;50.082;18.178;2023-05-10T13:43:37;3.60;;;2.10;;
76336;SDS011;65157;50.082;18.178;2023-05-10T13:48:31;1.80;;;1.70;;
76336;SDS011;65157;50.082;18.178;2023-05-10T13:51:00;3.60;;;2.10;;
76336;SDS011;65157;50.082;18.178;2023-05-10T13:53:27;2.10;;;1.80;;
76336;SDS011;65157;50.082;18.178;2023-05-10T13:58:20;5.60;;;2.10;;
76336;SDS011;65157;50.082;18.178;2023-05-10T14:00:47;3.40;;;1.80;;
76336;SDS011;65157;50.082;18.178;2023-05-10T14:03:18;3.80;;;2.00;;
76336;SDS011;65157;50.082;18.178;2023-05-10T14:05:47;1.80;;;1.70;;
76336;SDS011;65157;50.082;18.178;2023-05-10T14:08:14;2.00;;;1.70;;
76336;SDS011;65157;50.082;18.178;2023-05-10T14:10:41;3.70;;;1.70;;
76336;SDS011;65157;50.082;18.178;2023-05-10T14:13:08;2.50;;;2.10;;
76336;SDS011;65157;50.082;18.178;2023-05-10T14:15:42;1.80;;;1.60;;
76336;SDS011;65157;50.082;18.178;2023-05-10T14:18:08;2.80;;;1.80;;
76336;SDS011;65157;50.082;18.178;2023-05-10T14:20:36;2.30;;;1.70;;
76336;SDS011;65157;50.082;18.178;2023-05-10T14:23:03;2.80;;;1.70;;
76336;SDS011;65157;50.082;18.178;2023-05-10T14:25:32;2.80;;;1.80;;
76336;SDS011;65157;50.082;18.178;2023-05-10T14:27:59;4.00;;;2.00;;
76336;SDS011;65157;50.082;18.178;2023-05-10T14:30:27;2.50;;;1.90;;
76336;SDS011;65157;50.082;18.178;2023-05-10T14:32:53;3.80;;;2.00;;
76336;SDS011;65157;50.082;18.178;2023-05-10T14:37:47;2.90;;;1.90;;
76336;SDS011;65157;50.082;18.178;2023-05-10T14:40:13;2.30;;;1.90;;
76336;SDS011;65157;50.082;18.178;2023-05-10T14:42:41;4.30;;;2.00;;
76336;SDS011;65157;50.082;18.178;2023-05-10T14:45:10;2.00;;;1.80;;
76336;SDS011;65157;50.082;18.178;2023-05-10T14:47:37;3.00;;;1.90;;
76336;SDS011;65157;50.082;18.178;2023-05-10T14:50:04;2.90;;;1.70;;
76336;SDS011;65157;50.082;18.178;2023-05-10T14:52:31;2.10;;;1.80;;
76336;SDS011;65157;50.082;18.178;2023-05-10T14:54:58;2.30;;;1.40;;
76336;SDS011;65157;50.082;18.178;2023-05-10T14:57:25;2.60;;;1.90;;
76336;SDS011;65157;50.082;18.178;2023-05-10T14:59:55;1.80;;;1.50;;
76336;SDS011;65157;50.082;18.178;2023-05-10T15:02:23;3.60;;;1.80;;
76336;SDS011;65157;50.082;18.178;2023-05-10T15:04:50;4.00;;;2.10;;
76336;SDS011;65157;50.082;18.178;2023-05-10T15:07:19;3.60;;;1.70;;
76336;SDS011;65157;50.082;18.178;2023-05-10T15:09:46;2.00;;;1.70;;
76336;SDS011;65157;50.082;18.178;2023-05-10T15:12:13;2.10;;;1.50;;
76336;SDS011;65157;50.082;18.178;2023-05-10T15:14:41;1.90;;;1.50;;
76336;SDS011;65157;50.082;18.178;2023-05-10T15:17:14;1.50;;;1.40;;
76336;SDS011;65157;50.082;18.178;2023-05-10T15:22:08;1.70;;;1.60;;
76336;SDS011;65157;50.082;18.178;2023-05-10T15:24:34;2.20;;;1.50;;
76336;SDS011;65157;50.082;18.178;2023-05-10T15:27:01;1.80;;;1.40;;
76336;SDS011;65157;50.082;18.178;2023-05-10T15:29:28;2.00;;;1.90;;
76336;SDS011;65157;50.082;18.178;2023-05-10T15:31:57;1.50;;;1.40;;
76336;SDS011;65157;50.082;18.178;2023-05-10T15:36:53;1.80;;;1.50;;
76336;SDS011;65157;50.082;18.178;2023-05-10T15:39:21;3.30;;;1.50;;
76336;SDS011;65157;50.082;18.178;2023-05-10T15:41:49;1.60;;;1.50;;
76336;SDS011;65157;50.082;18.178;2023-05-10T15:44:24;2.60;;;2.00;;
76336;SDS011;65157;50.082;18.178;2023-05-10T15:46:50;1.40;;;1.30;;
76336;SDS011;65157;50.082;18.178;2023-05-10T15:49:17;1.70;;;1.40;;